Stilwell, Oklahoma
Current Conditions -  °F | °C
As of 11:55 AM on Friday 21 Nov 2014 (Local Time) from KTQH Reporting Station
Overcast Overcast  
Wind Chill: 54°   Ceiling: 1400
Heat Index: 54°   Visibility: 10mi
Dew Point: 46°   Wind: 9mph
Humidity: 77%   Direction: 130°SE
Pressure: 30.17"   Gusts: NA
Location:  35.81°N, 94.63°W
Report Text: KTQH 211755Z AUTO 13008KT 10SM BKN014 OVC021 12/08 A3017 RMK AO2
Loading
Personal Weather Stations






























Interactive Weather Map New forecast layout! Learn more

10-Day Weather Forecast

Advertisements
Track Severe Weather on mobile